sensor_id;sensor_type;location;lat;lon;timestamp;P1;durP1;ratioP1;P2;durP2;ratioP2
54241;SDS011;40156;51.080;17.082;2023-03-11T00:01:35;2.85;;;0.90;;
54241;SDS011;40156;51.080;17.082;2023-03-11T00:04:03;1.83;;;0.82;;
54241;SDS011;40156;51.080;17.082;2023-03-11T00:06:31;2.75;;;1.02;;
54241;SDS011;40156;51.080;17.082;2023-03-11T00:09:00;2.30;;;0.98;;
54241;SDS011;40156;51.080;17.082;2023-03-11T00:11:28;1.70;;;0.95;;
54241;SDS011;40156;51.080;17.082;2023-03-11T00:13:55;1.70;;;0.95;;
54241;SDS011;40156;51.080;17.082;2023-03-11T00:16:23;1.52;;;1.10;;
54241;SDS011;40156;51.080;17.082;2023-03-11T00:18:51;1.42;;;0.98;;
54241;SDS011;40156;51.080;17.082;2023-03-11T00:21:18;1.42;;;0.98;;
54241;SDS011;40156;51.080;17.082;2023-03-11T00:23:46;2.83;;;1.20;;
54241;SDS011;40156;51.080;17.082;2023-03-11T00:26:13;4.03;;;1.70;;
54241;SDS011;40156;51.080;17.082;2023-03-11T00:28:41;3.00;;;1.33;;
54241;SDS011;40156;51.080;17.082;2023-03-11T00:31:10;2.70;;;1.10;;
54241;SDS011;40156;51.080;17.082;2023-03-11T00:33:44;4.68;;;1.17;;
54241;SDS011;40156;51.080;17.082;2023-03-11T00:36:18;2.08;;;1.20;;
54241;SDS011;40156;51.080;17.082;2023-03-11T00:38:58;2.08;;;1.15;;
54241;SDS011;40156;51.080;17.082;2023-03-11T00:41:27;1.80;;;1.02;;
54241;SDS011;40156;51.080;17.082;2023-03-11T00:43:54;1.95;;;0.90;;
54241;SDS011;40156;51.080;17.082;2023-03-11T00:46:22;2.83;;;1.42;;
54241;SDS011;40156;51.080;17.082;2023-03-11T00:48:50;2.42;;;1.20;;
54241;SDS011;40156;51.080;17.082;2023-03-11T00:51:17;2.75;;;1.20;;
54241;SDS011;40156;51.080;17.082;2023-03-11T00:56:33;2.88;;;1.27;;
54241;SDS011;40156;51.080;17.082;2023-03-11T00:59:00;1.48;;;1.10;;
54241;SDS011;40156;51.080;17.082;2023-03-11T01:04:34;2.08;;;1.02;;
54241;SDS011;40156;51.080;17.082;2023-03-11T01:07:02;3.30;;;1.50;;
54241;SDS011;40156;51.080;17.082;2023-03-11T01:09:29;2.15;;;1.13;;
54241;SDS011;40156;51.080;17.082;2023-03-11T01:12:12;3.08;;;1.58;;
54241;SDS011;40156;51.080;17.082;2023-03-11T01:14:39;3.63;;;1.80;;
54241;SDS011;40156;51.080;17.082;2023-03-11T01:17:07;2.58;;;0.98;;
54241;SDS011;40156;51.080;17.082;2023-03-11T01:19:34;2.65;;;0.90;;
54241;SDS011;40156;51.080;17.082;2023-03-11T01:22:02;3.13;;;0.88;;
54241;SDS011;40156;51.080;17.082;2023-03-11T01:24:30;4.00;;;1.00;;
54241;SDS011;40156;51.080;17.082;2023-03-11T01:26:57;2.00;;;0.70;;
54241;SDS011;40156;51.080;17.082;2023-03-11T01:29:25;1.92;;;0.95;;
54241;SDS011;40156;51.080;17.082;2023-03-11T01:31:53;2.80;;;1.40;;
54241;SDS011;40156;51.080;17.082;2023-03-11T01:34:21;1.80;;;1.08;;
54241;SDS011;40156;51.080;17.082;2023-03-11T01:40:58;1.48;;;1.02;;
54241;SDS011;40156;51.080;17.082;2023-03-11T01:55:08;1.95;;;0.70;;
54241;SDS011;40156;51.080;17.082;2023-03-11T01:57:36;1.40;;;0.88;;
54241;SDS011;40156;51.080;17.082;2023-03-11T02:00:06;2.30;;;0.95;;
54241;SDS011;40156;51.080;17.082;2023-03-11T02:02:34;1.40;;;0.80;;
54241;SDS011;40156;51.080;17.082;2023-03-11T02:05:03;1.73;;;0.90;;
54241;SDS011;40156;51.080;17.082;2023-03-11T02:07:31;1.48;;;1.08;;
54241;SDS011;40156;51.080;17.082;2023-03-11T02:09:59;2.10;;;0.93;;
54241;SDS011;40156;51.080;17.082;2023-03-11T02:12:27;2.17;;;1.27;;
54241;SDS011;40156;51.080;17.082;2023-03-11T02:14:56;2.30;;;1.10;;
54241;SDS011;40156;51.080;17.082;2023-03-11T02:17:23;1.52;;;0.93;;
54241;SDS011;40156;51.080;17.082;2023-03-11T02:22:21;2.78;;;1.00;;
54241;SDS011;40156;51.080;17.082;2023-03-11T02:27:35;2.40;;;1.40;;
54241;SDS011;40156;51.080;17.082;2023-03-11T02:30:05;3.58;;;1.38;;
54241;SDS011;40156;51.080;17.082;2023-03-11T02:32:32;2.88;;;1.20;;
54241;SDS011;40156;51.080;17.082;2023-03-11T02:35:01;4.00;;;1.80;;
54241;SDS011;40156;51.080;17.082;2023-03-11T02:37:28;4.93;;;1.67;;
54241;SDS011;40156;51.080;17.082;2023-03-11T02:40:10;6.43;;;3.60;;
54241;SDS011;40156;51.080;17.082;2023-03-11T02:42:43;1.38;;;1.23;;
54241;SDS011;40156;51.080;17.082;2023-03-11T02:45:12;2.13;;;1.50;;
54241;SDS011;40156;51.080;17.082;2023-03-11T02:51:01;2.30;;;1.20;;
54241;SDS011;40156;51.080;17.082;2023-03-11T02:53:30;2.25;;;1.50;;
54241;SDS011;40156;51.080;17.082;2023-03-11T02:55:58;3.17;;;1.30;;
54241;SDS011;40156;51.080;17.082;2023-03-11T02:58:25;2.15;;;1.35;;
54241;SDS011;40156;51.080;17.082;2023-03-11T03:00:53;2.10;;;1.38;;
54241;SDS011;40156;51.080;17.082;2023-03-11T03:03:21;2.85;;;1.25;;
54241;SDS011;40156;51.080;17.082;2023-03-11T03:05:48;1.80;;;1.00;;
54241;SDS011;40156;51.080;17.082;2023-03-11T03:08:16;2.67;;;1.20;;
54241;SDS011;40156;51.080;17.082;2023-03-11T03:10:43;4.05;;;1.42;;
54241;SDS011;40156;51.080;17.082;2023-03-11T03:13:11;3.10;;;1.58;;
54241;SDS011;40156;51.080;17.082;2023-03-11T03:15:38;1.35;;;0.70;;
54241;SDS011;40156;51.080;17.082;2023-03-11T03:18:06;0.20;;;0.20;;
54241;SDS011;40156;51.080;17.082;2023-03-11T03:23:29;0.95;;;0.40;;
54241;SDS011;40156;51.080;17.082;2023-03-11T03:25:56;0.40;;;0.30;;
54241;SDS011;40156;51.080;17.082;2023-03-11T03:28:24;0.80;;;0.40;;
54241;SDS011;40156;51.080;17.082;2023-03-11T03:30:51;0.52;;;0.40;;
54241;SDS011;40156;51.080;17.082;2023-03-11T03:33:19;0.43;;;0.40;;
54241;SDS011;40156;51.080;17.082;2023-03-11T03:35:46;0.50;;;0.30;;
54241;SDS011;40156;51.080;17.082;2023-03-11T03:38:14;0.38;;;0.28;;
54241;SDS011;40156;51.080;17.082;2023-03-11T03:40:44;0.20;;;0.20;;
54241;SDS011;40156;51.080;17.082;2023-03-11T03:43:12;0.35;;;0.30;;
54241;SDS011;40156;51.080;17.082;2023-03-11T03:45:40;0.95;;;0.30;;
54241;SDS011;40156;51.080;17.082;2023-03-11T03:48:07;0.40;;;0.25;;
54241;SDS011;40156;51.080;17.082;2023-03-11T03:50:35;1.13;;;0.40;;
54241;SDS011;40156;51.080;17.082;2023-03-11T03:53:02;0.47;;;0.30;;
54241;SDS011;40156;51.080;17.082;2023-03-11T03:55:30;0.85;;;0.30;;
54241;SDS011;40156;51.080;17.082;2023-03-11T03:57:57;0.20;;;0.20;;
54241;SDS011;40156;51.080;17.082;2023-03-11T04:00:25;0.30;;;0.30;;
54241;SDS011;40156;51.080;17.082;2023-03-11T04:02:52;0.13;;;0.13;;
54241;SDS011;40156;51.080;17.082;2023-03-11T04:05:20;0.95;;;0.20;;
54241;SDS011;40156;51.080;17.082;2023-03-11T04:07:47;0.10;;;0.10;;
54241;SDS011;40156;51.080;17.082;2023-03-11T04:10:15;2.95;;;0.20;;
54241;SDS011;40156;51.080;17.082;2023-03-11T04:12:42;0.10;;;0.10;;
54241;SDS011;40156;51.080;17.082;2023-03-11T04:18:24;2.45;;;0.20;;
54241;SDS011;40156;51.080;17.082;2023-03-11T04:24:07;0.68;;;0.20;;
54241;SDS011;40156;51.080;17.082;2023-03-11T04:26:34;0.20;;;0.20;;
54241;SDS011;40156;51.080;17.082;2023-03-11T04:29:02;0.22;;;0.20;;
54241;SDS011;40156;51.080;17.082;2023-03-11T04:31:29;0.65;;;0.28;;
54241;SDS011;40156;51.080;17.082;2023-03-11T04:33:57;0.30;;;0.20;;
54241;SDS011;40156;51.080;17.082;2023-03-11T04:36:24;0.47;;;0.30;;
54241;SDS011;40156;51.080;17.082;2023-03-11T04:38:54;0.68;;;0.30;;
54241;SDS011;40156;51.080;17.082;2023-03-11T04:41:22;0.50;;;0.22;;
54241;SDS011;40156;51.080;17.082;2023-03-11T04:43:49;0.20;;;0.20;;
54241;SDS011;40156;51.080;17.082;2023-03-11T04:46:17;0.20;;;0.20;;
54241;SDS011;40156;51.080;17.082;2023-03-11T04:48:45;0.20;;;0.20;;
54241;SDS011;40156;51.080;17.082;2023-03-11T04:51:12;0.25;;;0.25;;
54241;SDS011;40156;51.080;17.082;2023-03-11T04:53:40;0.40;;;0.40;;
54241;SDS011;40156;51.080;17.082;2023-03-11T04:56:13;0.30;;;0.22;;
54241;SDS011;40156;51.080;17.082;2023-03-11T04:58:41;0.38;;;0.28;;
54241;SDS011;40156;51.080;17.082;2023-03-11T05:01:08;0.95;;;0.40;;
54241;SDS011;40156;51.080;17.082;2023-03-11T05:03:36;0.50;;;0.30;;
54241;SDS011;40156;51.080;17.082;2023-03-11T05:06:04;0.30;;;0.28;;
54241;SDS011;40156;51.080;17.082;2023-03-11T05:08:31;0.50;;;0.50;;
54241;SDS011;40156;51.080;17.082;2023-03-11T05:10:59;0.57;;;0.50;;
54241;SDS011;40156;51.080;17.082;2023-03-11T05:13:26;0.70;;;0.40;;
54241;SDS011;40156;51.080;17.082;2023-03-11T05:15:54;1.50;;;0.60;;
54241;SDS011;40156;51.080;17.082;2023-03-11T05:18:22;0.30;;;0.30;;
54241;SDS011;40156;51.080;17.082;2023-03-11T05:20:49;0.68;;;0.43;;
54241;SDS011;40156;51.080;17.082;2023-03-11T05:23:17;0.98;;;0.60;;
54241;SDS011;40156;51.080;17.082;2023-03-11T05:25:44;0.82;;;0.70;;
54241;SDS011;40156;51.080;17.082;2023-03-11T05:28:12;0.77;;;0.57;;
54241;SDS011;40156;51.080;17.082;2023-03-11T05:30:39;1.38;;;0.80;;
54241;SDS011;40156;51.080;17.082;2023-03-11T05:33:07;0.50;;;0.30;;
54241;SDS011;40156;51.080;17.082;2023-03-11T05:35:34;1.33;;;0.70;;
54241;SDS011;40156;51.080;17.082;2023-03-11T05:38:02;0.52;;;0.50;;
54241;SDS011;40156;51.080;17.082;2023-03-11T05:40:29;0.95;;;0.70;;
54241;SDS011;40156;51.080;17.082;2023-03-11T05:42:57;0.70;;;0.65;;
54241;SDS011;40156;51.080;17.082;2023-03-11T05:45:25;0.73;;;0.60;;
54241;SDS011;40156;51.080;17.082;2023-03-11T05:47:52;0.90;;;0.57;;
54241;SDS011;40156;51.080;17.082;2023-03-11T05:50:20;0.77;;;0.60;;
54241;SDS011;40156;51.080;17.082;2023-03-11T05:52:47;1.13;;;0.80;;
54241;SDS011;40156;51.080;17.082;2023-03-11T05:55:15;1.15;;;0.77;;
54241;SDS011;40156;51.080;17.082;2023-03-11T05:57:42;1.90;;;1.10;;
54241;SDS011;40156;51.080;17.082;2023-03-11T06:00:10;1.30;;;1.02;;
54241;SDS011;40156;51.080;17.082;2023-03-11T06:02:38;1.33;;;0.98;;
54241;SDS011;40156;51.080;17.082;2023-03-11T06:05:06;1.10;;;0.88;;
54241;SDS011;40156;51.080;17.082;2023-03-11T06:07:35;3.35;;;1.10;;
54241;SDS011;40156;51.080;17.082;2023-03-11T06:10:03;3.13;;;1.35;;
54241;SDS011;40156;51.080;17.082;2023-03-11T06:12:32;1.80;;;1.30;;
54241;SDS011;40156;51.080;17.082;2023-03-11T06:15:00;2.53;;;1.73;;
54241;SDS011;40156;51.080;17.082;2023-03-11T06:17:27;2.92;;;1.80;;
54241;SDS011;40156;51.080;17.082;2023-03-11T06:19:58;2.25;;;1.48;;
54241;SDS011;40156;51.080;17.082;2023-03-11T06:22:25;1.83;;;1.30;;
54241;SDS011;40156;51.080;17.082;2023-03-11T06:24:55;1.58;;;1.20;;
54241;SDS011;40156;51.080;17.082;2023-03-11T06:27:22;2.25;;;1.60;;
54241;SDS011;40156;51.080;17.082;2023-03-11T06:29:52;2.40;;;1.38;;
54241;SDS011;40156;51.080;17.082;2023-03-11T06:32:20;3.53;;;1.90;;
54241;SDS011;40156;51.080;17.082;2023-03-11T06:34:49;2.30;;;1.75;;
54241;SDS011;40156;51.080;17.082;2023-03-11T06:37:22;4.10;;;1.90;;
54241;SDS011;40156;51.080;17.082;2023-03-11T06:39:50;1.83;;;1.50;;
54241;SDS011;40156;51.080;17.082;2023-03-11T06:42:18;2.92;;;1.77;;
54241;SDS011;40156;51.080;17.082;2023-03-11T06:44:47;3.28;;;1.40;;
54241;SDS011;40156;51.080;17.082;2023-03-11T06:47:17;2.75;;;1.98;;
54241;SDS011;40156;51.080;17.082;2023-03-11T06:49:45;3.28;;;2.10;;
54241;SDS011;40156;51.080;17.082;2023-03-11T06:52:12;4.07;;;2.10;;
54241;SDS011;40156;51.080;17.082;2023-03-11T06:54:40;3.13;;;2.08;;
54241;SDS011;40156;51.080;17.082;2023-03-11T06:57:08;3.13;;;2.17;;
54241;SDS011;40156;51.080;17.082;2023-03-11T06:59:36;3.75;;;2.40;;
54241;SDS011;40156;51.080;17.082;2023-03-11T07:05:35;3.83;;;1.52;;
54241;SDS011;40156;51.080;17.082;2023-03-11T07:11:34;3.38;;;1.88;;
54241;SDS011;40156;51.080;17.082;2023-03-11T07:14:02;2.40;;;1.83;;
54241;SDS011;40156;51.080;17.082;2023-03-11T07:16:30;3.83;;;1.75;;
54241;SDS011;40156;51.080;17.082;2023-03-11T07:18:58;2.53;;;1.65;;
54241;SDS011;40156;51.080;17.082;2023-03-11T07:21:26;2.58;;;1.65;;
54241;SDS011;40156;51.080;17.082;2023-03-11T07:23:55;2.85;;;1.52;;
54241;SDS011;40156;51.080;17.082;2023-03-11T07:26:23;3.40;;;2.10;;
54241;SDS011;40156;51.080;17.082;2023-03-11T07:28:52;3.53;;;2.10;;
54241;SDS011;40156;51.080;17.082;2023-03-11T07:31:21;3.65;;;1.90;;
54241;SDS011;40156;51.080;17.082;2023-03-11T07:33:50;3.70;;;2.38;;
54241;SDS011;40156;51.080;17.082;2023-03-11T07:36:18;4.07;;;1.98;;
54241;SDS011;40156;51.080;17.082;2023-03-11T07:38:47;3.25;;;1.60;;
54241;SDS011;40156;51.080;17.082;2023-03-11T07:41:14;3.15;;;2.05;;
54241;SDS011;40156;51.080;17.082;2023-03-11T07:43:42;3.22;;;1.70;;
54241;SDS011;40156;51.080;17.082;2023-03-11T07:49:01;3.50;;;2.20;;
54241;SDS011;40156;51.080;17.082;2023-03-11T07:51:29;4.13;;;2.20;;
54241;SDS011;40156;51.080;17.082;2023-03-11T07:53:57;6.25;;;2.70;;
54241;SDS011;40156;51.080;17.082;2023-03-11T07:56:26;4.40;;;2.22;;
54241;SDS011;40156;51.080;17.082;2023-03-11T07:58:54;2.83;;;1.85;;
54241;SDS011;40156;51.080;17.082;2023-03-11T08:01:23;3.55;;;1.95;;
54241;SDS011;40156;51.080;17.082;2023-03-11T08:03:52;3.58;;;2.05;;
54241;SDS011;40156;51.080;17.082;2023-03-11T08:06:21;3.28;;;2.20;;
54241;SDS011;40156;51.080;17.082;2023-03-11T08:08:49;5.03;;;2.72;;
54241;SDS011;40156;51.080;17.082;2023-03-11T08:11:17;4.47;;;1.92;;
54241;SDS011;40156;51.080;17.082;2023-03-11T08:13:45;4.20;;;1.98;;
54241;SDS011;40156;51.080;17.082;2023-03-11T08:16:14;3.13;;;2.17;;
54241;SDS011;40156;51.080;17.082;2023-03-11T08:18:42;4.55;;;2.42;;
54241;SDS011;40156;51.080;17.082;2023-03-11T08:21:11;3.42;;;1.67;;
54241;SDS011;40156;51.080;17.082;2023-03-11T08:23:39;4.05;;;2.10;;
54241;SDS011;40156;51.080;17.082;2023-03-11T08:26:07;3.40;;;2.28;;
54241;SDS011;40156;51.080;17.082;2023-03-11T08:28:35;4.95;;;2.10;;
54241;SDS011;40156;51.080;17.082;2023-03-11T08:31:10;4.68;;;2.92;;
54241;SDS011;40156;51.080;17.082;2023-03-11T08:33:38;3.80;;;2.50;;
54241;SDS011;40156;51.080;17.082;2023-03-11T08:36:07;4.28;;;2.45;;
54241;SDS011;40156;51.080;17.082;2023-03-11T08:38:37;3.42;;;2.20;;
54241;SDS011;40156;51.080;17.082;2023-03-11T08:41:04;3.42;;;1.85;;
54241;SDS011;40156;51.080;17.082;2023-03-11T08:43:32;4.45;;;2.00;;
54241;SDS011;40156;51.080;17.082;2023-03-11T08:46:01;4.10;;;2.40;;
54241;SDS011;40156;51.080;17.082;2023-03-11T08:48:46;4.32;;;2.47;;
54241;SDS011;40156;51.080;17.082;2023-03-11T08:51:14;3.05;;;1.85;;
54241;SDS011;40156;51.080;17.082;2023-03-11T08:53:42;6.88;;;2.38;;
54241;SDS011;40156;51.080;17.082;2023-03-11T08:56:09;3.50;;;1.98;;
54241;SDS011;40156;51.080;17.082;2023-03-11T08:58:37;9.73;;;2.95;;
54241;SDS011;40156;51.080;17.082;2023-03-11T09:01:05;4.03;;;1.67;;
54241;SDS011;40156;51.080;17.082;2023-03-11T09:03:33;3.55;;;1.83;;
54241;SDS011;40156;51.080;17.082;2023-03-11T09:06:02;2.78;;;1.88;;
54241;SDS011;40156;51.080;17.082;2023-03-11T09:08:30;3.05;;;1.85;;
54241;SDS011;40156;51.080;17.082;2023-03-11T09:10:58;2.40;;;1.50;;
54241;SDS011;40156;51.080;17.082;2023-03-11T09:13:26;3.47;;;1.90;;
54241;SDS011;40156;51.080;17.082;2023-03-11T09:15:53;3.72;;;1.67;;
54241;SDS011;40156;51.080;17.082;2023-03-11T09:18:21;3.17;;;1.75;;
54241;SDS011;40156;51.080;17.082;2023-03-11T09:20:49;2.55;;;1.85;;
54241;SDS011;40156;51.080;17.082;2023-03-11T09:23:17;2.70;;;1.65;;
54241;SDS011;40156;51.080;17.082;2023-03-11T09:25:44;3.53;;;1.77;;
54241;SDS011;40156;51.080;17.082;2023-03-11T09:28:12;2.00;;;1.30;;
54241;SDS011;40156;51.080;17.082;2023-03-11T09:30:40;2.15;;;1.63;;
54241;SDS011;40156;51.080;17.082;2023-03-11T09:33:07;3.20;;;2.10;;
54241;SDS011;40156;51.080;17.082;2023-03-11T09:35:36;2.42;;;1.33;;
54241;SDS011;40156;51.080;17.082;2023-03-11T09:38:04;3.08;;;1.80;;
54241;SDS011;40156;51.080;17.082;2023-03-11T09:40:44;4.63;;;1.75;;
54241;SDS011;40156;51.080;17.082;2023-03-11T09:43:17;2.07;;;1.10;;
54241;SDS011;40156;51.080;17.082;2023-03-11T09:46:00;2.22;;;1.33;;
54241;SDS011;40156;51.080;17.082;2023-03-11T09:48:47;1.50;;;0.98;;
54241;SDS011;40156;51.080;17.082;2023-03-11T09:51:40;1.70;;;1.25;;
54241;SDS011;40156;51.080;17.082;2023-03-11T09:54:10;1.45;;;1.08;;
54241;SDS011;40156;51.080;17.082;2023-03-11T09:56:53;2.65;;;1.10;;
54241;SDS011;40156;51.080;17.082;2023-03-11T09:59:26;3.80;;;1.30;;
54241;SDS011;40156;51.080;17.082;2023-03-11T10:01:56;3.83;;;1.38;;
54241;SDS011;40156;51.080;17.082;2023-03-11T10:04:29;2.75;;;0.90;;
54241;SDS011;40156;51.080;17.082;2023-03-11T10:06:58;1.80;;;1.10;;
54241;SDS011;40156;51.080;17.082;2023-03-11T10:16:24;3.70;;;2.03;;
54241;SDS011;40156;51.080;17.082;2023-03-11T10:19:10;3.50;;;2.03;;
54241;SDS011;40156;51.080;17.082;2023-03-11T10:26:57;3.13;;;2.00;;
54241;SDS011;40156;51.080;17.082;2023-03-11T10:36:09;5.07;;;2.08;;
54241;SDS011;40156;51.080;17.082;2023-03-11T10:41:45;2.80;;;2.00;;
54241;SDS011;40156;51.080;17.082;2023-03-11T10:49:59;4.60;;;1.92;;
54241;SDS011;40156;51.080;17.082;2023-03-11T10:55:48;4.57;;;1.30;;
54241;SDS011;40156;51.080;17.082;2023-03-11T11:01:55;3.60;;;1.80;;
54241;SDS011;40156;51.080;17.082;2023-03-11T11:07:04;3.10;;;1.55;;
54241;SDS011;40156;51.080;17.082;2023-03-11T11:19:30;5.97;;;1.70;;
54241;SDS011;40156;51.080;17.082;2023-03-11T11:25:23;2.85;;;1.55;;
54241;SDS011;40156;51.080;17.082;2023-03-11T11:30:33;4.32;;;2.15;;
54241;SDS011;40156;51.080;17.082;2023-03-11T11:33:18;2.45;;;1.33;;
54241;SDS011;40156;51.080;17.082;2023-03-11T11:35:48;3.63;;;1.98;;
54241;SDS011;40156;51.080;17.082;2023-03-11T11:38:16;3.40;;;1.98;;
54241;SDS011;40156;51.080;17.082;2023-03-11T11:43:59;3.17;;;1.70;;
54241;SDS011;40156;51.080;17.082;2023-03-11T11:46:29;5.40;;;1.88;;
54241;SDS011;40156;51.080;17.082;2023-03-11T11:54:16;3.53;;;1.90;;
54241;SDS011;40156;51.080;17.082;2023-03-11T11:56:44;3.88;;;1.83;;
54241;SDS011;40156;51.080;17.082;2023-03-11T11:59:16;3.17;;;1.88;;
54241;SDS011;40156;51.080;17.082;2023-03-11T12:05:03;4.03;;;2.10;;
54241;SDS011;40156;51.080;17.082;2023-03-11T12:10:25;3.17;;;1.98;;
54241;SDS011;40156;51.080;17.082;2023-03-11T12:15:28;2.08;;;1.52;;
54241;SDS011;40156;51.080;17.082;2023-03-11T12:18:00;2.95;;;1.45;;
54241;SDS011;40156;51.080;17.082;2023-03-11T12:20:35;5.68;;;1.92;;
54241;SDS011;40156;51.080;17.082;2023-03-11T12:30:59;4.05;;;2.03;;
54241;SDS011;40156;51.080;17.082;2023-03-11T12:33:35;3.47;;;1.75;;
54241;SDS011;40156;51.080;17.082;2023-03-11T12:36:22;2.08;;;1.30;;
54241;SDS011;40156;51.080;17.082;2023-03-11T12:38:50;5.75;;;1.20;;
54241;SDS011;40156;51.080;17.082;2023-03-11T12:46:20;2.60;;;1.33;;
54241;SDS011;40156;51.080;17.082;2023-03-11T12:48:48;2.13;;;1.30;;
54241;SDS011;40156;51.080;17.082;2023-03-11T12:53:52;3.25;;;1.35;;
54241;SDS011;40156;51.080;17.082;2023-03-11T13:06:55;2.15;;;1.45;;
54241;SDS011;40156;51.080;17.082;2023-03-11T13:09:28;2.78;;;1.83;;
54241;SDS011;40156;51.080;17.082;2023-03-11T13:11:58;4.53;;;1.65;;
54241;SDS011;40156;51.080;17.082;2023-03-11T13:14:26;3.90;;;2.38;;
54241;SDS011;40156;51.080;17.082;2023-03-11T13:19:47;3.92;;;2.58;;
54241;SDS011;40156;51.080;17.082;2023-03-11T13:25:16;4.70;;;1.95;;
54241;SDS011;40156;51.080;17.082;2023-03-11T13:27:48;5.38;;;3.15;;
54241;SDS011;40156;51.080;17.082;2023-03-11T13:30:27;4.95;;;2.00;;
54241;SDS011;40156;51.080;17.082;2023-03-11T13:40:47;3.60;;;2.20;;
54241;SDS011;40156;51.080;17.082;2023-03-11T13:46:23;5.55;;;2.53;;
54241;SDS011;40156;51.080;17.082;2023-03-11T13:48:55;6.18;;;2.60;;
54241;SDS011;40156;51.080;17.082;2023-03-11T13:53:56;4.88;;;2.60;;
54241;SDS011;40156;51.080;17.082;2023-03-11T13:56:27;4.55;;;2.30;;
54241;SDS011;40156;51.080;17.082;2023-03-11T14:02:18;2.60;;;1.60;;
54241;SDS011;40156;51.080;17.082;2023-03-11T14:04:51;4.07;;;1.98;;
54241;SDS011;40156;51.080;17.082;2023-03-11T14:07:27;4.47;;;1.98;;
54241;SDS011;40156;51.080;17.082;2023-03-11T14:12:37;3.78;;;1.40;;
54241;SDS011;40156;51.080;17.082;2023-03-11T14:15:12;3.60;;;1.55;;
54241;SDS011;40156;51.080;17.082;2023-03-11T14:17:40;2.13;;;1.42;;
54241;SDS011;40156;51.080;17.082;2023-03-11T14:20:13;4.20;;;2.08;;
54241;SDS011;40156;51.080;17.082;2023-03-11T14:22:46;8.98;;;1.88;;
54241;SDS011;40156;51.080;17.082;2023-03-11T14:25:23;5.45;;;1.80;;
54241;SDS011;40156;51.080;17.082;2023-03-11T14:27:55;5.07;;;2.40;;
54241;SDS011;40156;51.080;17.082;2023-03-11T14:33:52;2.58;;;1.42;;
54241;SDS011;40156;51.080;17.082;2023-03-11T14:36:20;2.17;;;1.45;;
54241;SDS011;40156;51.080;17.082;2023-03-11T14:38:48;4.28;;;1.85;;
54241;SDS011;40156;51.080;17.082;2023-03-11T14:41:15;5.47;;;1.42;;
54241;SDS011;40156;51.080;17.082;2023-03-11T14:43:44;3.38;;;1.75;;
54241;SDS011;40156;51.080;17.082;2023-03-11T14:46:14;4.38;;;2.28;;
54241;SDS011;40156;51.080;17.082;2023-03-11T14:48:44;3.78;;;1.90;;
54241;SDS011;40156;51.080;17.082;2023-03-11T14:51:14;4.15;;;2.38;;
54241;SDS011;40156;51.080;17.082;2023-03-11T14:53:46;6.15;;;2.30;;
54241;SDS011;40156;51.080;17.082;2023-03-11T14:56:18;4.75;;;1.85;;
54241;SDS011;40156;51.080;17.082;2023-03-11T14:58:52;3.95;;;1.75;;
54241;SDS011;40156;51.080;17.082;2023-03-11T15:01:35;3.88;;;1.80;;
54241;SDS011;40156;51.080;17.082;2023-03-11T15:04:08;4.20;;;1.88;;
54241;SDS011;40156;51.080;17.082;2023-03-11T15:06:38;2.70;;;1.77;;
54241;SDS011;40156;51.080;17.082;2023-03-11T15:11:53;3.20;;;1.85;;
54241;SDS011;40156;51.080;17.082;2023-03-11T15:14:27;5.40;;;1.77;;
54241;SDS011;40156;51.080;17.082;2023-03-11T15:17:07;5.18;;;2.40;;
54241;SDS011;40156;51.080;17.082;2023-03-11T15:19:39;2.58;;;1.80;;
54241;SDS011;40156;51.080;17.082;2023-03-11T15:25:13;3.28;;;1.58;;
54241;SDS011;40156;51.080;17.082;2023-03-11T15:27:42;3.85;;;1.88;;
54241;SDS011;40156;51.080;17.082;2023-03-11T15:32:43;4.22;;;1.60;;
54241;SDS011;40156;51.080;17.082;2023-03-11T15:35:12;4.18;;;1.50;;
54241;SDS011;40156;51.080;17.082;2023-03-11T15:37:41;2.50;;;1.83;;
54241;SDS011;40156;51.080;17.082;2023-03-11T15:42:39;2.00;;;1.58;;
54241;SDS011;40156;51.080;17.082;2023-03-11T15:45:10;5.00;;;1.92;;
54241;SDS011;40156;51.080;17.082;2023-03-11T15:47:39;5.40;;;1.77;;
54241;SDS011;40156;51.080;17.082;2023-03-11T15:53:28;6.13;;;1.77;;
54241;SDS011;40156;51.080;17.082;2023-03-11T15:59:00;2.65;;;1.73;;
54241;SDS011;40156;51.080;17.082;2023-03-11T16:01:27;2.33;;;1.42;;
54241;SDS011;40156;51.080;17.082;2023-03-11T16:03:56;4.53;;;1.90;;
54241;SDS011;40156;51.080;17.082;2023-03-11T16:06:23;1.92;;;1.30;;
54241;SDS011;40156;51.080;17.082;2023-03-11T16:08:51;2.33;;;1.60;;
54241;SDS011;40156;51.080;17.082;2023-03-11T16:11:18;3.80;;;1.40;;
54241;SDS011;40156;51.080;17.082;2023-03-11T16:13:46;2.67;;;1.50;;
54241;SDS011;40156;51.080;17.082;2023-03-11T16:16:14;2.80;;;1.50;;
54241;SDS011;40156;51.080;17.082;2023-03-11T16:18:43;3.40;;;1.52;;
54241;SDS011;40156;51.080;17.082;2023-03-11T16:21:14;6.53;;;2.10;;
54241;SDS011;40156;51.080;17.082;2023-03-11T16:29:33;5.00;;;1.55;;
54241;SDS011;40156;51.080;17.082;2023-03-11T16:32:00;4.07;;;1.98;;
54241;SDS011;40156;51.080;17.082;2023-03-11T16:34:28;4.60;;;1.77;;
54241;SDS011;40156;51.080;17.082;2023-03-11T16:36:55;5.40;;;1.92;;
54241;SDS011;40156;51.080;17.082;2023-03-11T16:39:23;6.55;;;2.15;;
54241;SDS011;40156;51.080;17.082;2023-03-11T16:41:50;5.22;;;2.22;;
54241;SDS011;40156;51.080;17.082;2023-03-11T16:44:18;4.45;;;1.92;;
54241;SDS011;40156;51.080;17.082;2023-03-11T16:46:46;4.45;;;1.48;;
54241;SDS011;40156;51.080;17.082;2023-03-11T16:49:13;5.82;;;2.15;;
54241;SDS011;40156;51.080;17.082;2023-03-11T16:51:41;8.60;;;1.52;;
54241;SDS011;40156;51.080;17.082;2023-03-11T16:54:08;8.30;;;1.95;;
54241;SDS011;40156;51.080;17.082;2023-03-11T16:56:36;8.18;;;1.75;;
54241;SDS011;40156;51.080;17.082;2023-03-11T16:59:07;4.05;;;1.98;;
54241;SDS011;40156;51.080;17.082;2023-03-11T17:01:37;3.75;;;1.70;;
54241;SDS011;40156;51.080;17.082;2023-03-11T17:04:05;2.72;;;1.55;;
54241;SDS011;40156;51.080;17.082;2023-03-11T17:10:01;5.05;;;2.22;;
54241;SDS011;40156;51.080;17.082;2023-03-11T17:12:29;2.25;;;1.63;;
54241;SDS011;40156;51.080;17.082;2023-03-11T17:14:56;5.80;;;2.05;;
54241;SDS011;40156;51.080;17.082;2023-03-11T17:17:24;3.75;;;1.60;;
54241;SDS011;40156;51.080;17.082;2023-03-11T17:19:52;3.83;;;1.73;;
54241;SDS011;40156;51.080;17.082;2023-03-11T17:22:19;3.95;;;1.63;;
54241;SDS011;40156;51.080;17.082;2023-03-11T17:24:47;4.88;;;2.05;;
54241;SDS011;40156;51.080;17.082;2023-03-11T17:27:14;1.85;;;1.20;;
54241;SDS011;40156;51.080;17.082;2023-03-11T17:29:42;2.38;;;1.35;;
54241;SDS011;40156;51.080;17.082;2023-03-11T17:32:09;4.90;;;1.58;;
54241;SDS011;40156;51.080;17.082;2023-03-11T17:34:37;2.92;;;1.33;;
54241;SDS011;40156;51.080;17.082;2023-03-11T17:37:04;6.65;;;2.10;;
54241;SDS011;40156;51.080;17.082;2023-03-11T17:39:32;2.67;;;1.65;;
54241;SDS011;40156;51.080;17.082;2023-03-11T17:41:59;4.25;;;2.22;;
54241;SDS011;40156;51.080;17.082;2023-03-11T17:44:27;4.13;;;2.03;;
54241;SDS011;40156;51.080;17.082;2023-03-11T17:47:10;5.35;;;1.92;;
54241;SDS011;40156;51.080;17.082;2023-03-11T17:49:38;5.68;;;1.95;;
54241;SDS011;40156;51.080;17.082;2023-03-11T17:52:06;4.55;;;1.92;;
54241;SDS011;40156;51.080;17.082;2023-03-11T17:54:33;3.88;;;1.88;;
54241;SDS011;40156;51.080;17.082;2023-03-11T17:57:01;4.18;;;2.10;;
54241;SDS011;40156;51.080;17.082;2023-03-11T17:59:29;5.30;;;2.08;;
54241;SDS011;40156;51.080;17.082;2023-03-11T18:01:56;7.00;;;2.55;;
54241;SDS011;40156;51.080;17.082;2023-03-11T18:04:24;5.65;;;2.30;;
54241;SDS011;40156;51.080;17.082;2023-03-11T18:06:54;5.30;;;2.70;;